createdAt,value
2023-01-11T00:01:06.075Z,1.20
2023-01-11T00:03:34.280Z,1.33
2023-01-11T00:06:02.168Z,1.20
2023-01-11T00:08:30.043Z,1.13
2023-01-11T00:10:57.901Z,1.20
2023-01-11T00:13:27.217Z,1.00
2023-01-11T00:15:55.410Z,1.20
2023-01-11T00:18:23.596Z,1.40
2023-01-11T00:20:51.440Z,1.10
2023-01-11T00:23:19.305Z,1.10
2023-01-11T00:25:47.231Z,0.80
2023-01-11T00:28:15.369Z,1.13
2023-01-11T00:30:44.605Z,0.97
2023-01-11T00:33:13.035Z,0.83
2023-01-11T00:35:40.983Z,1.10
2023-01-11T00:38:08.810Z,1.00
2023-01-11T00:40:36.690Z,1.30
2023-01-11T00:43:21.769Z,1.03
2023-01-11T00:46:08.138Z,1.00
2023-01-11T00:48:36.021Z,1.00
2023-01-11T00:51:04.061Z,1.10
2023-01-11T00:53:31.956Z,1.10
2023-01-11T00:55:59.951Z,0.87
2023-01-11T00:58:27.885Z,1.10
2023-01-11T01:00:57.113Z,1.10
2023-01-11T01:03:25.036Z,0.97
2023-01-11T01:05:55.988Z,1.03
2023-01-11T01:08:23.855Z,1.33
2023-01-11T01:10:52.636Z,1.03
2023-01-11T01:13:37.918Z,1.17
2023-01-11T01:16:07.879Z,1.40
2023-01-11T01:18:35.935Z,2.37
2023-01-11T01:21:03.871Z,1.53
2023-01-11T01:23:31.866Z,1.20
2023-01-11T01:26:03.580Z,1.20
2023-01-11T01:28:31.885Z,0.90
2023-01-11T01:30:59.859Z,0.83
2023-01-11T01:33:29.245Z,1.30
2023-01-11T01:35:57.165Z,1.17
2023-01-11T01:38:25.010Z,1.30
2023-01-11T01:40:52.978Z,1.50
2023-01-11T01:43:20.850Z,1.93
2023-01-11T01:45:50.345Z,1.40
2023-01-11T01:48:21.925Z,1.70
2023-01-11T01:50:54.676Z,1.73
2023-01-11T01:53:27.063Z,1.70
2023-01-11T01:55:59.608Z,1.47
2023-01-11T01:58:31.165Z,1.67
2023-01-11T02:01:19.194Z,2.60
2023-01-11T02:03:48.346Z,2.30
2023-01-11T02:06:17.850Z,2.43
2023-01-11T02:08:49.364Z,2.23
2023-01-11T02:11:30.936Z,2.10
2023-01-11T02:14:02.189Z,1.80
2023-01-11T02:16:30.502Z,2.00
2023-01-11T02:18:59.523Z,2.30
2023-01-11T02:21:43.033Z,1.63
2023-01-11T02:24:49.360Z,1.77
2023-01-11T02:27:35.063Z,1.90
2023-01-11T02:30:18.751Z,2.20
2023-01-11T02:32:56.119Z,2.50
2023-01-11T02:35:34.252Z,2.40
2023-01-11T02:38:07.893Z,2.10
2023-01-11T02:40:45.494Z,2.70
2023-01-11T02:43:37.344Z,2.53
2023-01-11T02:46:14.365Z,2.40
2023-01-11T02:48:50.907Z,2.33
2023-01-11T02:51:23.717Z,2.53
2023-01-11T02:53:56.860Z,2.70
2023-01-11T02:56:27.725Z,2.53
2023-01-11T02:58:59.257Z,2.90
2023-01-11T03:01:28.747Z,2.30
2023-01-11T03:03:57.230Z,2.93
2023-01-11T03:06:29.758Z,2.20
2023-01-11T03:09:16.424Z,2.37
2023-01-11T03:12:20.307Z,2.43
2023-01-11T03:14:59.604Z,2.37
2023-01-11T03:17:43.636Z,2.37
2023-01-11T03:20:21.848Z,2.27
2023-01-11T03:23:13.727Z,2.57
2023-01-11T03:25:51.623Z,2.60
2023-01-11T03:28:30.133Z,2.60
2023-01-11T03:31:03.855Z,2.60
2023-01-11T03:33:39.724Z,2.37
2023-01-11T03:36:18.424Z,2.67
2023-01-11T03:38:52.685Z,2.60
2023-01-11T03:41:25.472Z,2.20
2023-01-11T03:43:57.269Z,2.33
2023-01-11T03:46:30.078Z,2.90
2023-01-11T03:49:04.043Z,3.97
2023-01-11T03:51:35.702Z,4.40
2023-01-11T03:54:07.737Z,3.63
2023-01-11T03:56:42.487Z,4.90
2023-01-11T03:59:10.416Z,4.30
2023-01-11T04:01:38.979Z,5.17
2023-01-11T04:04:08.273Z,5.00
2023-01-11T04:06:38.512Z,5.30
2023-01-11T04:09:06.858Z,6.07
2023-01-11T04:11:34.763Z,6.30
2023-01-11T04:14:02.689Z,6.23
2023-01-11T04:16:30.605Z,6.67
2023-01-11T04:18:58.542Z,6.77
2023-01-11T04:21:27.834Z,5.33
2023-01-11T04:23:55.810Z,5.93
2023-01-11T04:26:23.721Z,5.50
2023-01-11T04:28:54.111Z,6.47
2023-01-11T04:31:22.315Z,7.20
2023-01-11T04:33:50.235Z,7.53
2023-01-11T04:36:18.638Z,4.50
2023-01-11T04:38:47.930Z,4.23
2023-01-11T04:41:33.523Z,4.13
2023-01-11T04:44:01.449Z,3.53
2023-01-11T04:46:29.350Z,3.57
2023-01-11T04:48:57.423Z,3.70
2023-01-11T04:51:25.287Z,2.60
2023-01-11T04:53:54.798Z,2.90
2023-01-11T04:56:22.820Z,2.93
2023-01-11T04:58:50.761Z,2.77
2023-01-11T05:01:20.193Z,3.20
2023-01-11T05:03:48.349Z,3.00
2023-01-11T05:06:16.967Z,2.90
2023-01-11T05:08:50.338Z,2.30
2023-01-11T05:11:19.955Z,1.87
2023-01-11T05:13:48.078Z,2.67
2023-01-11T05:16:18.992Z,2.90
2023-01-11T05:18:49.346Z,3.17
2023-01-11T05:21:19.180Z,3.40
2023-01-11T05:23:47.978Z,2.60
2023-01-11T05:26:18.779Z,2.17
2023-01-11T05:28:48.190Z,2.10
2023-01-11T05:31:16.942Z,3.00
2023-01-11T05:33:45.397Z,2.27
2023-01-11T05:36:15.358Z,1.87
2023-01-11T05:38:43.409Z,1.73
2023-01-11T05:41:11.929Z,1.93
2023-01-11T05:44:00.518Z,1.50
2023-01-11T05:46:29.036Z,1.83
2023-01-11T05:48:59.152Z,1.60
2023-01-11T05:51:27.351Z,1.80
2023-01-11T05:53:55.266Z,2.03
2023-01-11T05:56:23.529Z,1.87
2023-01-11T05:58:52.617Z,1.90
2023-01-11T06:01:23.244Z,1.87
2023-01-11T06:03:53.137Z,1.60
2023-01-11T06:06:21.998Z,1.53
2023-01-11T06:08:50.101Z,1.60
2023-01-11T06:11:18.528Z,1.53
2023-01-11T06:13:46.439Z,1.27
2023-01-11T06:16:17.153Z,1.77
2023-01-11T06:18:47.257Z,1.80
2023-01-11T06:21:17.814Z,1.80
2023-01-11T06:23:47.356Z,1.80
2023-01-11T06:26:17.601Z,1.90
2023-01-11T06:28:45.917Z,2.10
2023-01-11T06:31:16.959Z,2.00
2023-01-11T06:33:45.822Z,1.77
2023-01-11T06:36:14.682Z,3.03
2023-01-11T06:38:44.829Z,1.80
2023-01-11T06:41:13.873Z,1.60
2023-01-11T06:43:42.908Z,1.40
2023-01-11T06:46:15.366Z,1.70
2023-01-11T06:48:43.399Z,1.20
2023-01-11T06:51:12.173Z,1.53
2023-01-11T06:53:40.939Z,2.03
2023-01-11T06:56:13.756Z,1.67
2023-01-11T06:58:41.843Z,1.53
2023-01-11T07:01:09.947Z,2.10
2023-01-11T07:03:39.388Z,2.20
2023-01-11T07:06:07.683Z,14.53
2023-01-11T07:08:35.614Z,3.83
2023-01-11T07:11:04.109Z,2.50
2023-01-11T07:13:33.476Z,1.63
2023-01-11T07:16:01.896Z,1.60
2023-01-11T07:18:31.703Z,4.17
2023-01-11T07:20:59.698Z,10.23
2023-01-11T07:23:27.635Z,8.23
2023-01-11T07:25:55.638Z,12.83
2023-01-11T07:28:23.691Z,1.93
2023-01-11T07:30:59.387Z,4.93
2023-01-11T07:33:28.559Z,2.30
2023-01-11T07:35:58.274Z,2.10
2023-01-11T07:38:26.298Z,2.10
2023-01-11T07:40:54.420Z,2.90
2023-01-11T07:43:23.553Z,2.87
2023-01-11T07:45:54.225Z,3.43
2023-01-11T07:48:26.952Z,3.37
2023-01-11T07:50:55.863Z,1.63
2023-01-11T07:53:26.466Z,1.30
2023-01-11T07:55:56.172Z,1.87
2023-01-11T07:58:24.219Z,1.90
2023-01-11T08:00:53.512Z,2.33
2023-01-11T08:03:21.701Z,2.10
2023-01-11T08:05:52.494Z,1.47
2023-01-11T08:08:20.515Z,1.53
2023-01-11T08:11:08.684Z,1.20
2023-01-11T08:13:54.204Z,1.67
2023-01-11T08:16:23.603Z,1.50
2023-01-11T08:18:51.598Z,1.87
2023-01-11T08:21:21.390Z,2.10
2023-01-11T08:23:49.521Z,1.50
2023-01-11T08:26:18.164Z,1.70
2023-01-11T08:28:46.705Z,2.10
2023-01-11T08:31:14.730Z,1.30
2023-01-11T08:33:44.655Z,2.00
2023-01-11T08:36:14.061Z,1.87
2023-01-11T08:38:42.128Z,2.10
2023-01-11T08:41:11.719Z,2.07
2023-01-11T08:43:39.667Z,1.90
2023-01-11T08:46:07.830Z,1.80
2023-01-11T08:48:35.796Z,1.30
2023-01-11T08:51:06.027Z,1.20
2023-01-11T08:53:34.061Z,1.40
2023-01-11T08:56:02.413Z,1.10
2023-01-11T08:58:30.347Z,1.17
2023-01-11T09:00:59.267Z,1.97
2023-01-11T09:03:28.649Z,1.40
2023-01-11T09:05:57.613Z,1.43
2023-01-11T09:08:27.802Z,2.00
2023-01-11T09:10:56.391Z,3.37
2023-01-11T09:13:24.295Z,1.43
2023-01-11T09:15:57.150Z,2.13
2023-01-11T09:18:26.975Z,2.00
2023-01-11T09:20:55.102Z,2.37
2023-01-11T09:23:23.039Z,1.90
2023-01-11T09:25:52.386Z,1.80
2023-01-11T09:28:20.284Z,1.57
2023-01-11T09:30:48.367Z,1.47
2023-01-11T09:33:16.212Z,4.23
2023-01-11T09:35:46.261Z,1.40
2023-01-11T09:38:14.235Z,1.10
2023-01-11T09:40:51.141Z,2.83
2023-01-11T09:43:27.361Z,1.50
2023-01-11T09:45:58.815Z,2.40
2023-01-11T09:48:36.720Z,1.77
2023-01-11T09:51:06.231Z,1.90
2023-01-11T09:53:38.537Z,1.00
2023-01-11T09:56:13.149Z,1.93
2023-01-11T09:58:54.964Z,0.80
2023-01-11T10:01:30.074Z,0.50
2023-01-11T10:04:26.044Z,0.90
2023-01-11T10:07:06.479Z,1.47
2023-01-11T10:18:35.339Z,1.27
2023-01-11T10:18:54.181Z,1.30
2023-01-11T10:21:27.309Z,1.30
2023-01-11T10:24:03.220Z,1.20
2023-01-11T10:26:39.731Z,0.80
2023-01-11T10:29:40.183Z,0.60
2023-01-11T10:32:35.545Z,0.70
2023-01-11T10:35:33.324Z,0.47
2023-01-11T10:38:30.862Z,0.90
2023-01-11T10:41:12.077Z,1.07
2023-01-11T10:43:45.301Z,1.20
2023-01-11T10:46:16.836Z,1.10
2023-01-11T10:48:47.410Z,1.30
2023-01-11T10:51:27.252Z,1.30
2023-01-11T10:54:06.764Z,1.10
2023-01-11T10:57:02.861Z,0.93
2023-01-11T10:59:52.586Z,1.50
2023-01-11T11:02:36.081Z,1.00
2023-01-11T11:05:17.585Z,1.37
2023-01-11T11:07:52.197Z,1.80
2023-01-11T11:10:26.108Z,1.40
2023-01-11T11:13:03.209Z,1.50
2023-01-11T11:15:39.660Z,1.97
2023-01-11T11:18:07.851Z,0.87
2023-01-11T11:20:37.552Z,0.97
2023-01-11T11:23:05.968Z,1.40
2023-01-11T11:25:37.420Z,1.90
2023-01-11T11:28:07.126Z,1.00
2023-01-11T11:30:38.307Z,1.43
2023-01-11T11:33:15.489Z,1.50
2023-01-11T11:35:46.494Z,1.20
2023-01-11T11:38:24.610Z,1.47
2023-01-11T11:41:05.327Z,1.20
2023-01-11T11:43:34.467Z,1.37
2023-01-11T11:46:04.529Z,1.30
2023-01-11T11:48:34.587Z,1.20
2023-01-11T11:51:07.246Z,1.23
2023-01-11T11:53:42.953Z,1.17
2023-01-11T11:56:21.959Z,1.60
2023-01-11T11:58:51.212Z,1.50
2023-01-11T12:01:25.843Z,1.70
2023-01-11T12:03:57.257Z,1.90
2023-01-11T12:06:29.981Z,1.57
2023-01-11T12:09:02.051Z,1.33
2023-01-11T12:11:34.979Z,1.40
2023-01-11T12:14:16.795Z,1.20
2023-01-11T12:16:47.073Z,1.30
2023-01-11T12:19:35.475Z,1.10
2023-01-11T12:22:18.784Z,1.40
2023-01-11T12:24:47.575Z,4.40
2023-01-11T12:27:32.727Z,1.47
2023-01-11T12:30:19.919Z,1.63
2023-01-11T12:33:07.346Z,1.10
2023-01-11T12:35:43.106Z,1.40
2023-01-11T12:38:32.583Z,1.77
2023-01-11T12:41:13.569Z,1.27
2023-01-11T12:43:55.842Z,1.30
2023-01-11T12:46:34.305Z,1.27
2023-01-11T12:49:38.035Z,1.30
2023-01-11T12:52:40.734Z,1.37
2023-01-11T12:55:26.645Z,1.17
2023-01-11T12:58:01.975Z,1.57
2023-01-11T13:01:05.977Z,1.80
2023-01-11T13:04:05.160Z,1.60
2023-01-11T13:06:40.493Z,1.57
2023-01-11T13:09:18.902Z,2.10
2023-01-11T13:12:00.675Z,1.93
2023-01-11T13:14:55.178Z,1.90
2023-01-11T13:17:34.637Z,2.37
2023-01-11T13:20:18.173Z,2.03
2023-01-11T13:22:51.447Z,1.70
2023-01-11T13:25:24.718Z,1.60
2023-01-11T13:27:56.197Z,1.70
2023-01-11T13:30:25.493Z,1.30
2023-01-11T13:32:57.819Z,1.50
2023-01-11T13:35:36.003Z,1.30
2023-01-11T13:38:16.125Z,1.50
2023-01-11T13:40:48.406Z,1.13
2023-01-11T13:43:23.773Z,1.40
2023-01-11T13:45:57.140Z,1.60
2023-01-11T13:48:30.848Z,1.60
2023-01-11T13:51:04.662Z,1.60
2023-01-11T13:53:38.694Z,2.10
2023-01-11T13:56:13.512Z,1.80
2023-01-11T13:58:53.086Z,1.90
2023-01-11T14:01:27.969Z,1.60
2023-01-11T14:04:01.998Z,1.90
2023-01-11T14:06:45.661Z,1.90
2023-01-11T14:09:30.826Z,1.80
2023-01-11T14:12:06.266Z,1.77
2023-01-11T14:14:51.559Z,1.90
2023-01-11T14:17:33.753Z,2.20
2023-01-11T14:20:08.975Z,2.43
2023-01-11T14:22:44.858Z,2.20
2023-01-11T14:25:19.613Z,2.60
2023-01-11T14:28:01.427Z,2.50
2023-01-11T14:31:03.473Z,2.00
2023-01-11T14:34:12.864Z,1.90
2023-01-11T14:36:57.978Z,2.23
2023-01-11T14:39:46.171Z,2.00
2023-01-11T14:42:35.710Z,2.20
2023-01-11T14:45:25.440Z,2.17
2023-01-11T14:48:11.525Z,1.80
2023-01-11T14:50:57.030Z,1.80
2023-01-11T14:53:30.767Z,2.40
2023-01-11T14:55:58.683Z,1.70
2023-01-11T14:58:28.218Z,1.73
2023-01-11T15:01:14.115Z,2.17
2023-01-11T15:03:55.734Z,1.77
2023-01-11T15:06:24.202Z,2.17
2023-01-11T15:08:55.982Z,1.53
2023-01-11T15:11:39.122Z,2.40
2023-01-11T15:14:28.577Z,2.27
2023-01-11T15:17:18.821Z,3.70
2023-01-11T15:19:50.367Z,4.30
2023-01-11T15:22:36.213Z,2.47
2023-01-11T15:25:06.690Z,2.33
2023-01-11T15:27:37.386Z,2.73
2023-01-11T15:30:08.176Z,2.63
2023-01-11T15:32:37.788Z,10.60
2023-01-11T15:35:33.481Z,12.73
2023-01-11T15:38:10.205Z,18.63
2023-01-11T15:40:42.789Z,30.90
2023-01-11T15:44:32.006Z,7.37
2023-01-11T15:47:25.225Z,4.00
2023-01-11T15:50:13.450Z,3.07
2023-01-11T15:53:16.827Z,3.10
2023-01-11T15:56:12.476Z,2.87
2023-01-11T15:59:16.887Z,3.20
2023-01-11T16:02:05.034Z,2.83
2023-01-11T16:04:37.714Z,2.90
2023-01-11T16:07:16.465Z,3.43
2023-01-11T16:10:06.936Z,3.63
2023-01-11T16:12:48.277Z,3.43
2023-01-11T16:15:39.874Z,3.50
2023-01-11T16:18:18.497Z,3.50
2023-01-11T16:20:59.549Z,4.37
2023-01-11T16:23:27.601Z,3.63
2023-01-11T16:25:59.129Z,4.20
2023-01-11T16:28:28.466Z,3.87
2023-01-11T16:30:58.439Z,4.50
2023-01-11T16:33:28.350Z,3.93
2023-01-11T16:36:12.707Z,4.90
2023-01-11T16:38:53.690Z,4.47
2023-01-11T16:41:24.795Z,4.20
2023-01-11T16:43:55.779Z,4.57
2023-01-11T16:46:59.161Z,5.27
2023-01-11T16:49:27.279Z,5.23
2023-01-11T16:51:59.833Z,5.60
2023-01-11T16:54:30.178Z,4.80
2023-01-11T16:57:01.713Z,5.53
2023-01-11T16:59:31.817Z,5.20
2023-01-11T17:02:03.776Z,5.37
2023-01-11T17:04:33.599Z,5.00
2023-01-11T17:07:14.914Z,5.30
2023-01-11T17:09:43.976Z,5.23
2023-01-11T17:12:20.411Z,4.70
2023-01-11T17:15:06.877Z,5.93
2023-01-11T17:17:36.925Z,5.20
2023-01-11T17:20:12.973Z,5.20
2023-01-11T17:22:41.059Z,5.07
2023-01-11T17:25:17.085Z,5.20
2023-01-11T17:27:51.697Z,6.10
2023-01-11T17:30:22.837Z,5.27
2023-01-11T17:32:54.630Z,5.17
2023-01-11T17:35:24.374Z,5.53
2023-01-11T17:37:54.187Z,5.23
2023-01-11T17:40:25.027Z,5.47
2023-01-11T17:43:23.952Z,6.03
2023-01-11T17:45:55.604Z,5.57
2023-01-11T17:48:25.194Z,5.70
2023-01-11T17:50:56.857Z,5.27
2023-01-11T17:53:26.940Z,5.40
2023-01-11T17:55:57.142Z,6.50
2023-01-11T17:58:28.595Z,3.97
2023-01-11T18:01:18.338Z,3.40
2023-01-11T18:03:48.029Z,3.03
2023-01-11T18:06:24.337Z,2.80
2023-01-11T18:08:54.915Z,3.00
2023-01-11T18:11:26.056Z,3.30
2023-01-11T18:13:58.202Z,5.67
2023-01-11T18:16:26.412Z,6.43
2023-01-11T18:18:55.532Z,7.20
2023-01-11T18:21:40.616Z,6.60
2023-01-11T18:24:34.153Z,7.23
2023-01-11T18:27:24.968Z,7.47
2023-01-11T18:29:55.900Z,6.30
2023-01-11T18:32:24.517Z,9.07
2023-01-11T18:34:54.932Z,6.13
2023-01-11T18:37:23.522Z,5.77
2023-01-11T18:39:53.423Z,12.73
2023-01-11T18:42:25.801Z,5.93
2023-01-11T18:44:55.278Z,5.90
2023-01-11T18:47:25.278Z,5.93
2023-01-11T18:49:54.295Z,7.50
2023-01-11T18:52:27.539Z,7.37
2023-01-11T18:54:56.161Z,8.07
2023-01-11T18:57:25.033Z,6.60
2023-01-11T18:59:54.778Z,6.00
2023-01-11T19:02:26.189Z,5.60
2023-01-11T19:04:57.595Z,5.37
2023-01-11T19:07:26.985Z,5.00
2023-01-11T19:09:56.030Z,4.57
2023-01-11T19:12:24.519Z,4.80
2023-01-11T19:14:52.496Z,5.27
2023-01-11T19:17:22.131Z,4.37
2023-01-11T19:19:50.275Z,5.83
2023-01-11T19:22:18.210Z,4.90
2023-01-11T19:24:46.243Z,5.27
2023-01-11T19:27:14.382Z,5.13
2023-01-11T19:29:42.388Z,5.87
2023-01-11T19:32:10.774Z,5.63
2023-01-11T19:34:41.110Z,5.97
2023-01-11T19:37:09.067Z,5.10
2023-01-11T19:39:37.291Z,5.10
2023-01-11T19:42:05.754Z,5.77
2023-01-11T19:44:35.332Z,4.67
2023-01-11T19:47:11.202Z,5.90
2023-01-11T19:49:42.525Z,6.50
2023-01-11T19:52:14.000Z,5.30
2023-01-11T19:54:43.595Z,4.07
2023-01-11T19:57:12.375Z,4.43
2023-01-11T19:59:40.378Z,4.33
2023-01-11T20:02:09.276Z,4.30
2023-01-11T20:04:37.316Z,4.27
2023-01-11T20:07:06.839Z,4.23
2023-01-11T20:09:37.557Z,4.37
2023-01-11T20:12:06.397Z,4.17
2023-01-11T20:14:35.071Z,3.87
2023-01-11T20:17:03.404Z,5.20
2023-01-11T20:19:31.360Z,8.60
2023-01-11T20:21:59.350Z,3.90
2023-01-11T20:24:30.136Z,4.97
2023-01-11T20:26:59.328Z,6.37
2023-01-11T20:29:27.567Z,3.80
2023-01-11T20:31:55.790Z,3.77
2023-01-11T20:34:27.418Z,3.50
2023-01-11T20:36:55.361Z,3.90
2023-01-11T20:39:24.214Z,3.87
2023-01-11T20:41:54.082Z,3.87
2023-01-11T20:44:24.142Z,3.63
2023-01-11T20:46:53.475Z,3.60
2023-01-11T20:49:24.454Z,3.80
2023-01-11T20:51:52.471Z,3.13
2023-01-11T20:54:22.084Z,3.50
2023-01-11T20:56:51.385Z,3.20
2023-01-11T20:59:20.813Z,3.73
2023-01-11T21:01:49.360Z,3.50
2023-01-11T21:04:19.103Z,3.27
2023-01-11T21:06:49.039Z,3.50
2023-01-11T21:09:18.928Z,4.63
2023-01-11T21:11:53.109Z,4.90
2023-01-11T21:14:23.073Z,3.37
2023-01-11T21:16:54.898Z,4.23
2023-01-11T21:19:23.792Z,5.57
2023-01-11T21:21:51.849Z,4.50
2023-01-11T21:24:20.977Z,4.17
2023-01-11T21:26:49.482Z,4.00
2023-01-11T21:29:17.440Z,3.97
2023-01-11T21:31:46.818Z,3.90
2023-01-11T21:34:15.249Z,4.00
2023-01-11T21:36:44.956Z,3.33
2023-01-11T21:39:15.205Z,3.90
2023-01-11T21:41:56.157Z,4.00
2023-01-11T21:44:27.336Z,3.87
2023-01-11T21:46:56.803Z,3.20
2023-01-11T21:49:25.323Z,3.63
2023-01-11T21:51:53.656Z,3.67
2023-01-11T21:54:21.756Z,3.17
2023-01-11T21:56:50.464Z,3.90
2023-01-11T21:59:18.569Z,3.00
2023-01-11T22:01:49.382Z,3.07
2023-01-11T22:04:21.775Z,4.37
2023-01-11T22:06:54.862Z,3.93
2023-01-11T22:09:26.209Z,3.97
2023-01-11T22:11:54.164Z,4.77
2023-01-11T22:14:22.574Z,5.03
2023-01-11T22:16:51.006Z,5.73
2023-01-11T22:19:20.426Z,4.90
2023-01-11T22:21:48.495Z,4.27
2023-01-11T22:24:17.530Z,3.77
2023-01-11T22:26:45.605Z,3.27
2023-01-11T22:29:15.291Z,3.13
2023-01-11T22:31:46.683Z,4.00
2023-01-11T22:34:15.987Z,3.97
2023-01-11T22:36:45.980Z,3.47
2023-01-11T22:39:15.643Z,3.90
2023-01-11T22:41:45.663Z,3.90
2023-01-11T22:44:14.727Z,4.37
2023-01-11T22:46:43.492Z,4.47
2023-01-11T22:49:14.299Z,4.40
2023-01-11T22:51:43.034Z,4.27
2023-01-11T22:54:12.919Z,3.93
2023-01-11T22:56:41.527Z,4.47
2023-01-11T22:59:09.726Z,4.53
2023-01-11T23:01:39.264Z,4.80
2023-01-11T23:04:08.782Z,4.80
2023-01-11T23:06:38.792Z,5.60
2023-01-11T23:09:07.829Z,4.97
2023-01-11T23:11:57.898Z,3.60
2023-01-11T23:14:29.233Z,2.70
2023-01-11T23:16:57.598Z,2.70
2023-01-11T23:19:25.503Z,3.27
2023-01-11T23:21:53.457Z,2.97
2023-01-11T23:24:21.444Z,3.63
2023-01-11T23:26:51.204Z,3.60
2023-01-11T23:29:19.208Z,4.10
2023-01-11T23:31:47.439Z,3.73
2023-01-11T23:34:15.499Z,4.67
2023-01-11T23:36:44.415Z,4.30
2023-01-11T23:39:14.930Z,3.93
2023-01-11T23:42:00.739Z,3.30
2023-01-11T23:44:30.136Z,3.40
2023-01-11T23:47:15.584Z,3.93
2023-01-11T23:49:44.344Z,4.30
2023-01-11T23:52:12.773Z,4.13
2023-01-11T23:54:41.300Z,3.87
2023-01-11T23:57:09.415Z,3.20
2023-01-11T23:59:39.047Z,3.60
